sensor_id;sensor_type;location;lat;lon;timestamp;temperature;humidity
13835;DHT22;6988;52.614;13.500;2023-03-14T00:06:27;12.60;99.90
13835;DHT22;6988;52.614;13.500;2023-03-14T00:11:21;12.60;99.90
13835;DHT22;6988;52.614;13.500;2023-03-14T00:23:11;12.50;99.90
13835;DHT22;6988;52.614;13.500;2023-03-14T01:06:56;12.00;99.90
13835;DHT22;6988;52.614;13.500;2023-03-14T01:11:48;12.00;99.90
13835;DHT22;6988;52.614;13.500;2023-03-14T01:16:41;11.80;99.90
13835;DHT22;6988;52.614;13.500;2023-03-14T01:21:35;11.80;99.90
13835;DHT22;6988;52.614;13.500;2023-03-14T01:26:31;11.80;99.90
13835;DHT22;6988;52.614;13.500;2023-03-14T01:31:27;11.70;99.90
13835;DHT22;6988;52.614;13.500;2023-03-14T01:36:22;11.70;99.90
13835;DHT22;6988;52.614;13.500;2023-03-14T01:41:16;11.70;99.90
13835;DHT22;6988;52.614;13.500;2023-03-14T01:46:24;11.70;99.90
13835;DHT22;6988;52.614;13.500;2023-03-14T01:51:24;11.70;99.90
13835;DHT22;6988;52.614;13.500;2023-03-14T01:56:25;11.70;99.90
13835;DHT22;6988;52.614;13.500;2023-03-14T02:07:54;11.70;99.90
13835;DHT22;6988;52.614;13.500;2023-03-14T02:12:55;11.70;99.90
13835;DHT22;6988;52.614;13.500;2023-03-14T02:18:02;11.70;99.90
13835;DHT22;6988;52.614;13.500;2023-03-14T02:23:18;11.60;99.90
13835;DHT22;6988;52.614;13.500;2023-03-14T02:28:16;11.60;99.90
13835;DHT22;6988;52.614;13.500;2023-03-14T02:33:14;11.70;99.90
13835;DHT22;6988;52.614;13.500;2023-03-14T02:38:13;11.60;99.90
13835;DHT22;6988;52.614;13.500;2023-03-14T02:43:10;11.60;99.90
13835;DHT22;6988;52.614;13.500;2023-03-14T02:48:13;11.60;99.90
13835;DHT22;6988;52.614;13.500;2023-03-14T02:53:13;11.60;99.90
13835;DHT22;6988;52.614;13.500;2023-03-14T02:58:09;11.60;99.90
13835;DHT22;6988;52.614;13.500;2023-03-14T03:03:01;11.60;99.90
13835;DHT22;6988;52.614;13.500;2023-03-14T03:14:21;11.60;99.90
13835;DHT22;6988;52.614;13.500;2023-03-14T03:19:14;11.50;99.90
13835;DHT22;6988;52.614;13.500;2023-03-14T04:03:27;11.40;99.90
13835;DHT22;6988;52.614;13.500;2023-03-14T04:08:20;11.40;99.90
13835;DHT22;6988;52.614;13.500;2023-03-14T04:13:12;11.30;99.90
13835;DHT22;6988;52.614;13.500;2023-03-14T04:18:06;11.30;99.90
13835;DHT22;6988;52.614;13.500;2023-03-14T04:23:01;11.30;99.90
13835;DHT22;6988;52.614;13.500;2023-03-14T05:15:06;11.10;99.90
13835;DHT22;6988;52.614;13.500;2023-03-14T05:20:12;11.00;99.90
13835;DHT22;6988;52.614;13.500;2023-03-14T05:25:23;11.10;99.90
13835;DHT22;6988;52.614;13.500;2023-03-14T05:30:27;11.00;99.90
13835;DHT22;6988;52.614;13.500;2023-03-14T05:48:20;11.00;99.90
13835;DHT22;6988;52.614;13.500;2023-03-14T05:53:40;11.00;99.90
13835;DHT22;6988;52.614;13.500;2023-03-14T05:58:57;11.00;99.90
13835;DHT22;6988;52.614;13.500;2023-03-14T06:03:59;11.10;99.90
13835;DHT22;6988;52.614;13.500;2023-03-14T06:08:52;11.10;99.90
13835;DHT22;6988;52.614;13.500;2023-03-14T06:13:44;11.10;99.90
13835;DHT22;6988;52.614;13.500;2023-03-14T06:18:36;11.10;99.90
13835;DHT22;6988;52.614;13.500;2023-03-14T06:23:32;11.10;99.90
13835;DHT22;6988;52.614;13.500;2023-03-14T06:28:26;11.20;99.90
13835;DHT22;6988;52.614;13.500;2023-03-14T06:33:22;11.20;99.90
13835;DHT22;6988;52.614;13.500;2023-03-14T06:38:14;11.20;99.90
13835;DHT22;6988;52.614;13.500;2023-03-14T06:43:08;11.30;99.90
13835;DHT22;6988;52.614;13.500;2023-03-14T06:48:02;11.30;99.90
13835;DHT22;6988;52.614;13.500;2023-03-14T06:53:34;11.40;99.90
13835;DHT22;6988;52.614;13.500;2023-03-14T06:58:29;11.50;99.90
13835;DHT22;6988;52.614;13.500;2023-03-14T07:03:28;11.50;99.90
13835;DHT22;6988;52.614;13.500;2023-03-14T07:14:54;11.80;99.90
13835;DHT22;6988;52.614;13.500;2023-03-14T07:19:46;11.90;99.90
13835;DHT22;6988;52.614;13.500;2023-03-14T07:51:16;12.40;99.90
13835;DHT22;6988;52.614;13.500;2023-03-14T07:56:08;12.40;99.90
13835;DHT22;6988;52.614;13.500;2023-03-14T08:53:41;12.90;99.90
13835;DHT22;6988;52.614;13.500;2023-03-14T08:58:33;12.80;99.90
13835;DHT22;6988;52.614;13.500;2023-03-14T09:09:39;12.70;99.90
13835;DHT22;6988;52.614;13.500;2023-03-14T09:14:31;12.70;99.90
13835;DHT22;6988;52.614;13.500;2023-03-14T09:19:23;12.60;99.90
13835;DHT22;6988;52.614;13.500;2023-03-14T09:24:15;12.70;99.90
13835;DHT22;6988;52.614;13.500;2023-03-14T09:29:09;13.00;99.90
13835;DHT22;6988;52.614;13.500;2023-03-14T09:34:01;13.50;99.90
13835;DHT22;6988;52.614;13.500;2023-03-14T09:38:53;14.20;99.90
13835;DHT22;6988;52.614;13.500;2023-03-14T09:43:46;14.80;99.90
13835;DHT22;6988;52.614;13.500;2023-03-14T09:48:44;15.30;99.90
13835;DHT22;6988;52.614;13.500;2023-03-14T09:53:40;15.40;99.90
13835;DHT22;6988;52.614;13.500;2023-03-14T09:58:36;15.30;99.90
13835;DHT22;6988;52.614;13.500;2023-03-14T10:03:32;14.70;99.90
13835;DHT22;6988;52.614;13.500;2023-03-14T10:08:26;14.30;99.90
13835;DHT22;6988;52.614;13.500;2023-03-14T10:13:20;14.00;99.90
13835;DHT22;6988;52.614;13.500;2023-03-14T10:18:15;13.90;99.90
13835;DHT22;6988;52.614;13.500;2023-03-14T10:23:26;13.80;99.90
13835;DHT22;6988;52.614;13.500;2023-03-14T10:28:24;13.80;99.90
13835;DHT22;6988;52.614;13.500;2023-03-14T10:33:22;13.70;99.90
13835;DHT22;6988;52.614;13.500;2023-03-14T10:38:17;13.70;99.90
13835;DHT22;6988;52.614;13.500;2023-03-14T10:43:14;13.70;99.90
13835;DHT22;6988;52.614;13.500;2023-03-14T10:48:19;13.60;99.90
13835;DHT22;6988;52.614;13.500;2023-03-14T10:53:17;13.60;99.90
13835;DHT22;6988;52.614;13.500;2023-03-14T10:58:23;13.50;99.90
13835;DHT22;6988;52.614;13.500;2023-03-14T11:03:17;13.50;99.90
13835;DHT22;6988;52.614;13.500;2023-03-14T11:08:15;13.50;99.90
13835;DHT22;6988;52.614;13.500;2023-03-14T11:13:17;13.50;99.90
13835;DHT22;6988;52.614;13.500;2023-03-14T11:18:30;13.50;99.90
13835;DHT22;6988;52.614;13.500;2023-03-14T11:23:42;13.50;99.90
13835;DHT22;6988;52.614;13.500;2023-03-14T11:28:48;13.50;99.90
13835;DHT22;6988;52.614;13.500;2023-03-14T11:33:47;13.50;99.90
13835;DHT22;6988;52.614;13.500;2023-03-14T11:38:49;13.40;99.90
13835;DHT22;6988;52.614;13.500;2023-03-14T11:43:48;13.40;99.90
13835;DHT22;6988;52.614;13.500;2023-03-14T11:48:56;13.50;99.90
13835;DHT22;6988;52.614;13.500;2023-03-14T11:54:00;13.50;99.90
13835;DHT22;6988;52.614;13.500;2023-03-14T11:59:01;13.50;99.90
13835;DHT22;6988;52.614;13.500;2023-03-14T12:04:02;13.50;99.90
13835;DHT22;6988;52.614;13.500;2023-03-14T12:09:00;13.50;99.90
13835;DHT22;6988;52.614;13.500;2023-03-14T12:13:54;13.50;99.90
13835;DHT22;6988;52.614;13.500;2023-03-14T12:18:47;13.40;99.90
13835;DHT22;6988;52.614;13.500;2023-03-14T12:23:42;13.40;99.90
13835;DHT22;6988;52.614;13.500;2023-03-14T12:28:36;13.30;99.90
13835;DHT22;6988;52.614;13.500;2023-03-14T12:33:31;13.20;99.90
13835;DHT22;6988;52.614;13.500;2023-03-14T12:38:31;13.20;99.90
13835;DHT22;6988;52.614;13.500;2023-03-14T12:43:34;13.20;99.90
13835;DHT22;6988;52.614;13.500;2023-03-14T12:48:27;13.40;99.90
13835;DHT22;6988;52.614;13.500;2023-03-14T12:53:42;13.50;99.90
13835;DHT22;6988;52.614;13.500;2023-03-14T12:58:54;13.70;99.90
13835;DHT22;6988;52.614;13.500;2023-03-14T13:03:58;13.70;99.90
13835;DHT22;6988;52.614;13.500;2023-03-14T13:08:58;13.50;99.90
13835;DHT22;6988;52.614;13.500;2023-03-14T13:13:55;13.50;99.90
13835;DHT22;6988;52.614;13.500;2023-03-14T13:18:49;13.40;99.90
13835;DHT22;6988;52.614;13.500;2023-03-14T13:23:59;13.30;99.90
13835;DHT22;6988;52.614;13.500;2023-03-14T13:28:53;13.40;99.90
13835;DHT22;6988;52.614;13.500;2023-03-14T13:33:45;13.60;99.90
13835;DHT22;6988;52.614;13.500;2023-03-14T13:38:37;14.00;99.90
13835;DHT22;6988;52.614;13.500;2023-03-14T13:43:32;14.40;99.90
13835;DHT22;6988;52.614;13.500;2023-03-14T13:48:27;14.70;99.90
13835;DHT22;6988;52.614;13.500;2023-03-14T13:53:22;14.80;99.90
13835;DHT22;6988;52.614;13.500;2023-03-14T13:58:23;14.90;99.90
13835;DHT22;6988;52.614;13.500;2023-03-14T14:03:19;14.90;99.90
13835;DHT22;6988;52.614;13.500;2023-03-14T14:08:12;15.40;99.90
13835;DHT22;6988;52.614;13.500;2023-03-14T14:13:08;15.50;99.90
13835;DHT22;6988;52.614;13.500;2023-03-14T14:18:06;15.80;99.90
13835;DHT22;6988;52.614;13.500;2023-03-14T14:23:04;15.90;99.90
13835;DHT22;6988;52.614;13.500;2023-03-14T14:27:58;16.00;99.90
13835;DHT22;6988;52.614;13.500;2023-03-14T14:32:51;16.00;99.90
13835;DHT22;6988;52.614;13.500;2023-03-14T14:37:43;15.70;99.90
13835;DHT22;6988;52.614;13.500;2023-03-14T14:42:40;15.50;99.90
13835;DHT22;6988;52.614;13.500;2023-03-14T14:47:32;15.20;99.90
13835;DHT22;6988;52.614;13.500;2023-03-14T14:52:33;15.00;99.90
13835;DHT22;6988;52.614;13.500;2023-03-14T14:57:31;14.60;99.90
13835;DHT22;6988;52.614;13.500;2023-03-14T15:02:35;14.30;99.90
13835;DHT22;6988;52.614;13.500;2023-03-14T15:07:30;14.00;99.90
13835;DHT22;6988;52.614;13.500;2023-03-14T15:12:22;13.80;99.90
13835;DHT22;6988;52.614;13.500;2023-03-14T15:17:15;13.50;99.90
13835;DHT22;6988;52.614;13.500;2023-03-14T15:22:12;13.10;99.90
13835;DHT22;6988;52.614;13.500;2023-03-14T15:27:10;12.60;99.90
13835;DHT22;6988;52.614;13.500;2023-03-14T15:32:05;10.90;99.90
13835;DHT22;6988;52.614;13.500;2023-03-14T15:36:57;9.30;99.90
13835;DHT22;6988;52.614;13.500;2023-03-14T15:41:50;8.10;99.90
13835;DHT22;6988;52.614;13.500;2023-03-14T15:46:42;7.30;99.90
13835;DHT22;6988;52.614;13.500;2023-03-14T15:51:33;6.30;99.90
13835;DHT22;6988;52.614;13.500;2023-03-14T15:56:25;5.60;99.90
13835;DHT22;6988;52.614;13.500;2023-03-14T16:01:22;5.00;99.90
13835;DHT22;6988;52.614;13.500;2023-03-14T16:06:15;4.60;99.90
13835;DHT22;6988;52.614;13.500;2023-03-14T16:11:07;4.30;99.90
13835;DHT22;6988;52.614;13.500;2023-03-14T16:16:02;4.20;99.90
13835;DHT22;6988;52.614;13.500;2023-03-14T16:20:58;4.00;99.90
13835;DHT22;6988;52.614;13.500;2023-03-14T16:25:52;3.80;99.90
13835;DHT22;6988;52.614;13.500;2023-03-14T16:30:45;3.60;99.90
13835;DHT22;6988;52.614;13.500;2023-03-14T16:35:37;3.50;99.90
13835;DHT22;6988;52.614;13.500;2023-03-14T16:40:31;3.40;99.90
13835;DHT22;6988;52.614;13.500;2023-03-14T16:45:23;3.30;99.90
13835;DHT22;6988;52.614;13.500;2023-03-14T16:50:15;3.00;99.90
13835;DHT22;6988;52.614;13.500;2023-03-14T16:55:07;3.00;99.90
13835;DHT22;6988;52.614;13.500;2023-03-14T17:00:01;2.90;99.90
13835;DHT22;6988;52.614;13.500;2023-03-14T17:04:54;2.80;99.90
13835;DHT22;6988;52.614;13.500;2023-03-14T17:09:47;2.90;99.90
13835;DHT22;6988;52.614;13.500;2023-03-14T17:14:39;2.80;99.90
13835;DHT22;6988;52.614;13.500;2023-03-14T17:19:32;2.80;99.90
13835;DHT22;6988;52.614;13.500;2023-03-14T17:24:24;2.70;99.90
13835;DHT22;6988;52.614;13.500;2023-03-14T17:29:16;2.60;99.90
13835;DHT22;6988;52.614;13.500;2023-03-14T17:34:08;2.60;99.90
13835;DHT22;6988;52.614;13.500;2023-03-14T17:39:02;2.70;99.90
13835;DHT22;6988;52.614;13.500;2023-03-14T17:43:54;2.70;99.90
13835;DHT22;6988;52.614;13.500;2023-03-14T17:48:47;2.70;99.90
13835;DHT22;6988;52.614;13.500;2023-03-14T17:53:39;2.80;99.90
13835;DHT22;6988;52.614;13.500;2023-03-14T17:58:33;2.80;99.90
13835;DHT22;6988;52.614;13.500;2023-03-14T18:03:26;2.80;99.90
13835;DHT22;6988;52.614;13.500;2023-03-14T18:08:18;2.80;99.90
13835;DHT22;6988;52.614;13.500;2023-03-14T18:13:10;2.90;99.90
13835;DHT22;6988;52.614;13.500;2023-03-14T18:18:04;2.90;99.90
13835;DHT22;6988;52.614;13.500;2023-03-14T18:22:56;2.90;99.90
13835;DHT22;6988;52.614;13.500;2023-03-14T18:27:50;3.00;99.90
13835;DHT22;6988;52.614;13.500;2023-03-14T18:32:41;3.10;99.90
13835;DHT22;6988;52.614;13.500;2023-03-14T18:37:35;3.10;99.90
13835;DHT22;6988;52.614;13.500;2023-03-14T18:42:26;3.10;99.90
13835;DHT22;6988;52.614;13.500;2023-03-14T18:47:18;3.20;99.90
13835;DHT22;6988;52.614;13.500;2023-03-14T18:52:15;3.20;99.90
13835;DHT22;6988;52.614;13.500;2023-03-14T18:57:08;3.20;99.90
13835;DHT22;6988;52.614;13.500;2023-03-14T19:02:00;3.10;99.90
13835;DHT22;6988;52.614;13.500;2023-03-14T19:06:51;3.20;99.90
13835;DHT22;6988;52.614;13.500;2023-03-14T19:11:43;3.20;99.90
13835;DHT22;6988;52.614;13.500;2023-03-14T19:16:37;3.20;99.90
13835;DHT22;6988;52.614;13.500;2023-03-14T19:21:30;3.30;99.90
13835;DHT22;6988;52.614;13.500;2023-03-14T19:26:23;3.30;99.90
13835;DHT22;6988;52.614;13.500;2023-03-14T19:37:51;3.40;99.90
13835;DHT22;6988;52.614;13.500;2023-03-14T19:42:43;3.40;99.90
13835;DHT22;6988;52.614;13.500;2023-03-14T19:47:35;3.50;99.90
13835;DHT22;6988;52.614;13.500;2023-03-14T19:52:27;3.50;99.90
13835;DHT22;6988;52.614;13.500;2023-03-14T19:57:20;3.40;99.90
13835;DHT22;6988;52.614;13.500;2023-03-14T20:02:13;3.30;99.90
13835;DHT22;6988;52.614;13.500;2023-03-14T20:07:05;3.30;99.90
13835;DHT22;6988;52.614;13.500;2023-03-14T20:11:57;3.40;99.90
13835;DHT22;6988;52.614;13.500;2023-03-14T20:16:50;3.30;99.90
13835;DHT22;6988;52.614;13.500;2023-03-14T20:21:43;3.40;99.90
13835;DHT22;6988;52.614;13.500;2023-03-14T20:26:36;3.30;99.90
13835;DHT22;6988;52.614;13.500;2023-03-14T20:31:28;3.30;99.90
13835;DHT22;6988;52.614;13.500;2023-03-14T20:36:21;3.30;99.90
13835;DHT22;6988;52.614;13.500;2023-03-14T20:41:13;3.20;99.90
13835;DHT22;6988;52.614;13.500;2023-03-14T20:46:05;3.20;99.90
13835;DHT22;6988;52.614;13.500;2023-03-14T20:50:59;3.20;99.90
13835;DHT22;6988;52.614;13.500;2023-03-14T20:55:55;3.20;99.90
13835;DHT22;6988;52.614;13.500;2023-03-14T21:00:49;3.10;99.90
13835;DHT22;6988;52.614;13.500;2023-03-14T21:37:01;2.80;99.90
13835;DHT22;6988;52.614;13.500;2023-03-14T21:48:25;2.70;99.90
13835;DHT22;6988;52.614;13.500;2023-03-14T21:53:47;2.70;99.90
13835;DHT22;6988;52.614;13.500;2023-03-14T22:11:43;2.50;99.90
13835;DHT22;6988;52.614;13.500;2023-03-14T22:16:35;2.40;99.90
13835;DHT22;6988;52.614;13.500;2023-03-14T22:21:27;2.30;99.90
13835;DHT22;6988;52.614;13.500;2023-03-14T22:26:19;2.30;99.90
13835;DHT22;6988;52.614;13.500;2023-03-14T22:31:13;2.30;99.90
13835;DHT22;6988;52.614;13.500;2023-03-14T22:36:05;2.40;99.90
13835;DHT22;6988;52.614;13.500;2023-03-14T22:40:59;2.50;99.90
13835;DHT22;6988;52.614;13.500;2023-03-14T23:03:51;2.00;99.90
13835;DHT22;6988;52.614;13.500;2023-03-14T23:08:43;1.90;99.90
13835;DHT22;6988;52.614;13.500;2023-03-14T23:13:35;1.90;99.90
13835;DHT22;6988;52.614;13.500;2023-03-14T23:18:27;1.90;99.90
13835;DHT22;6988;52.614;13.500;2023-03-14T23:23:21;2.00;99.90
13835;DHT22;6988;52.614;13.500;2023-03-14T23:28:15;2.00;99.90
13835;DHT22;6988;52.614;13.500;2023-03-14T23:33:07;2.00;99.90
13835;DHT22;6988;52.614;13.500;2023-03-14T23:37:59;2.00;99.90
13835;DHT22;6988;52.614;13.500;2023-03-14T23:42:55;2.00;99.90
13835;DHT22;6988;52.614;13.500;2023-03-14T23:47:47;2.00;99.90
13835;DHT22;6988;52.614;13.500;2023-03-14T23:52:39;2.00;99.90
13835;DHT22;6988;52.614;13.500;2023-03-14T23:57:31;2.00;99.90
